sensor_id;sensor_type;location;lat;lon;timestamp;temperature;humidity
27128;DHT22;14660;49.008;8.390;2023-01-15T00:00:06;12.00;99.90
27128;DHT22;14660;49.008;8.390;2023-01-15T00:02:35;12.10;99.90
27128;DHT22;14660;49.008;8.390;2023-01-15T00:05:06;12.10;99.90
27128;DHT22;14660;49.008;8.390;2023-01-15T00:07:38;12.00;99.90
27128;DHT22;14660;49.008;8.390;2023-01-15T00:10:06;12.00;99.90
27128;DHT22;14660;49.008;8.390;2023-01-15T00:12:32;12.00;99.90
27128;DHT22;14660;49.008;8.390;2023-01-15T00:14:59;12.10;99.90
27128;DHT22;14660;49.008;8.390;2023-01-15T00:17:26;12.00;99.90
27128;DHT22;14660;49.008;8.390;2023-01-15T00:19:58;12.00;99.90
27128;DHT22;14660;49.008;8.390;2023-01-15T00:22:25;12.10;99.90
27128;DHT22;14660;49.008;8.390;2023-01-15T00:24:52;12.10;99.90
27128;DHT22;14660;49.008;8.390;2023-01-15T00:27:39;12.20;99.90
27128;DHT22;14660;49.008;8.390;2023-01-15T00:30:11;12.10;99.90
27128;DHT22;14660;49.008;8.390;2023-01-15T00:32:41;12.20;99.90
27128;DHT22;14660;49.008;8.390;2023-01-15T00:35:21;12.10;99.90
27128;DHT22;14660;49.008;8.390;2023-01-15T00:37:52;12.20;99.90
27128;DHT22;14660;49.008;8.390;2023-01-15T00:40:20;12.10;99.90
27128;DHT22;14660;49.008;8.390;2023-01-15T00:42:47;12.20;99.90
27128;DHT22;14660;49.008;8.390;2023-01-15T00:45:19;12.20;99.90
27128;DHT22;14660;49.008;8.390;2023-01-15T00:47:49;12.20;99.90
27128;DHT22;14660;49.008;8.390;2023-01-15T00:50:16;12.20;99.90
27128;DHT22;14660;49.008;8.390;2023-01-15T00:52:43;12.20;99.90
27128;DHT22;14660;49.008;8.390;2023-01-15T00:55:10;12.20;99.90
27128;DHT22;14660;49.008;8.390;2023-01-15T00:57:36;12.20;99.90
27128;DHT22;14660;49.008;8.390;2023-01-15T01:00:03;12.20;99.90
27128;DHT22;14660;49.008;8.390;2023-01-15T01:02:31;12.20;99.90
27128;DHT22;14660;49.008;8.390;2023-01-15T01:05:01;12.20;99.90
27128;DHT22;14660;49.008;8.390;2023-01-15T01:07:27;12.20;99.90
27128;DHT22;14660;49.008;8.390;2023-01-15T01:09:55;12.10;99.90
27128;DHT22;14660;49.008;8.390;2023-01-15T01:12:20;12.00;99.90
27128;DHT22;14660;49.008;8.390;2023-01-15T01:14:49;12.00;99.90
27128;DHT22;14660;49.008;8.390;2023-01-15T01:17:15;12.00;99.90
27128;DHT22;14660;49.008;8.390;2023-01-15T01:19:42;12.00;99.90
27128;DHT22;14660;49.008;8.390;2023-01-15T01:22:10;12.00;99.90
27128;DHT22;14660;49.008;8.390;2023-01-15T01:24:36;12.00;99.90
27128;DHT22;14660;49.008;8.390;2023-01-15T01:27:03;12.00;99.90
27128;DHT22;14660;49.008;8.390;2023-01-15T01:29:30;11.90;99.90
27128;DHT22;14660;49.008;8.390;2023-01-15T01:31:57;12.00;99.90
27128;DHT22;14660;49.008;8.390;2023-01-15T01:34:23;12.00;99.90
27128;DHT22;14660;49.008;8.390;2023-01-15T01:36:50;11.90;99.90
27128;DHT22;14660;49.008;8.390;2023-01-15T01:39:18;11.90;99.90
27128;DHT22;14660;49.008;8.390;2023-01-15T01:41:46;11.90;99.90
27128;DHT22;14660;49.008;8.390;2023-01-15T01:47:24;12.00;99.90
27128;DHT22;14660;49.008;8.390;2023-01-15T01:49:56;12.00;99.90
27128;DHT22;14660;49.008;8.390;2023-01-15T01:52:35;12.00;99.90
27128;DHT22;14660;49.008;8.390;2023-01-15T01:55:05;12.00;99.90
27128;DHT22;14660;49.008;8.390;2023-01-15T01:57:40;11.90;99.90
27128;DHT22;14660;49.008;8.390;2023-01-15T02:00:10;12.10;99.90
27128;DHT22;14660;49.008;8.390;2023-01-15T02:02:40;12.00;99.90
27128;DHT22;14660;49.008;8.390;2023-01-15T02:05:10;12.00;99.90
27128;DHT22;14660;49.008;8.390;2023-01-15T02:07:39;12.10;99.90
27128;DHT22;14660;49.008;8.390;2023-01-15T02:10:12;12.10;99.90
27128;DHT22;14660;49.008;8.390;2023-01-15T02:12:41;12.00;99.90
27128;DHT22;14660;49.008;8.390;2023-01-15T02:15:19;12.00;99.90
27128;DHT22;14660;49.008;8.390;2023-01-15T02:27:17;12.00;99.90
27128;DHT22;14660;49.008;8.390;2023-01-15T02:33:14;11.90;99.90
27128;DHT22;14660;49.008;8.390;2023-01-15T02:36:01;12.00;99.90
27128;DHT22;14660;49.008;8.390;2023-01-15T02:38:35;12.10;99.90
27128;DHT22;14660;49.008;8.390;2023-01-15T02:41:04;12.10;99.90
27128;DHT22;14660;49.008;8.390;2023-01-15T02:43:34;12.10;99.90
27128;DHT22;14660;49.008;8.390;2023-01-15T02:46:04;12.10;99.90
27128;DHT22;14660;49.008;8.390;2023-01-15T02:48:33;12.10;99.90
27128;DHT22;14660;49.008;8.390;2023-01-15T02:51:08;12.10;99.90
27128;DHT22;14660;49.008;8.390;2023-01-15T02:53:37;12.00;99.90
27128;DHT22;14660;49.008;8.390;2023-01-15T02:56:08;12.00;99.90
27128;DHT22;14660;49.008;8.390;2023-01-15T02:58:38;12.00;99.90
27128;DHT22;14660;49.008;8.390;2023-01-15T03:01:16;12.00;99.90
27128;DHT22;14660;49.008;8.390;2023-01-15T03:04:06;12.10;99.90
27128;DHT22;14660;49.008;8.390;2023-01-15T03:09:37;12.10;99.90
27128;DHT22;14660;49.008;8.390;2023-01-15T03:18:23;12.20;99.90
27128;DHT22;14660;49.008;8.390;2023-01-15T03:20:57;12.20;99.90
27128;DHT22;14660;49.008;8.390;2023-01-15T03:23:25;12.20;99.90
27128;DHT22;14660;49.008;8.390;2023-01-15T03:25:55;12.30;99.90
27128;DHT22;14660;49.008;8.390;2023-01-15T03:28:25;12.30;99.90
27128;DHT22;14660;49.008;8.390;2023-01-15T03:30:53;12.40;99.90
27128;DHT22;14660;49.008;8.390;2023-01-15T03:33:20;12.30;99.90
27128;DHT22;14660;49.008;8.390;2023-01-15T03:36:05;12.40;99.90
27128;DHT22;14660;49.008;8.390;2023-01-15T03:38:36;12.40;99.90
27128;DHT22;14660;49.008;8.390;2023-01-15T03:53:29;12.40;99.90
27128;DHT22;14660;49.008;8.390;2023-01-15T03:59:38;12.40;99.90
27128;DHT22;14660;49.008;8.390;2023-01-15T04:02:08;12.30;99.90
27128;DHT22;14660;49.008;8.390;2023-01-15T04:04:39;12.00;99.90
27128;DHT22;14660;49.008;8.390;2023-01-15T04:07:07;11.80;99.90
27128;DHT22;14660;49.008;8.390;2023-01-15T04:09:42;11.60;99.90
27128;DHT22;14660;49.008;8.390;2023-01-15T04:12:11;11.50;99.90
27128;DHT22;14660;49.008;8.390;2023-01-15T04:14:38;11.50;99.90
27128;DHT22;14660;49.008;8.390;2023-01-15T04:17:04;11.40;99.90
27128;DHT22;14660;49.008;8.390;2023-01-15T04:19:31;11.50;99.90
27128;DHT22;14660;49.008;8.390;2023-01-15T04:21:58;11.40;99.90
27128;DHT22;14660;49.008;8.390;2023-01-15T04:24:25;11.30;99.90
27128;DHT22;14660;49.008;8.390;2023-01-15T04:26:52;11.40;99.90
27128;DHT22;14660;49.008;8.390;2023-01-15T04:29:19;11.30;99.90
27128;DHT22;14660;49.008;8.390;2023-01-15T04:31:45;11.20;99.90
27128;DHT22;14660;49.008;8.390;2023-01-15T04:34:11;11.20;99.90
27128;DHT22;14660;49.008;8.390;2023-01-15T04:36:38;11.20;99.90
27128;DHT22;14660;49.008;8.390;2023-01-15T04:39:05;11.20;99.90
27128;DHT22;14660;49.008;8.390;2023-01-15T04:41:31;11.30;99.90
27128;DHT22;14660;49.008;8.390;2023-01-15T04:44:17;11.30;99.90
27128;DHT22;14660;49.008;8.390;2023-01-15T04:46:45;11.20;99.90
27128;DHT22;14660;49.008;8.390;2023-01-15T04:49:16;11.10;99.90
27128;DHT22;14660;49.008;8.390;2023-01-15T04:51:43;11.20;99.90
27128;DHT22;14660;49.008;8.390;2023-01-15T04:54:15;11.20;99.90
27128;DHT22;14660;49.008;8.390;2023-01-15T04:56:44;11.20;99.90
27128;DHT22;14660;49.008;8.390;2023-01-15T04:59:12;11.10;99.90
27128;DHT22;14660;49.008;8.390;2023-01-15T05:01:41;11.00;99.90
27128;DHT22;14660;49.008;8.390;2023-01-15T05:04:08;11.00;99.90
27128;DHT22;14660;49.008;8.390;2023-01-15T05:06:36;11.00;99.90
27128;DHT22;14660;49.008;8.390;2023-01-15T05:09:03;10.90;99.90
27128;DHT22;14660;49.008;8.390;2023-01-15T05:11:33;11.10;99.90
27128;DHT22;14660;49.008;8.390;2023-01-15T05:14:00;11.00;99.90
27128;DHT22;14660;49.008;8.390;2023-01-15T05:16:26;10.80;99.90
27128;DHT22;14660;49.008;8.390;2023-01-15T05:18:58;10.80;99.90
27128;DHT22;14660;49.008;8.390;2023-01-15T05:21:36;10.90;99.90
27128;DHT22;14660;49.008;8.390;2023-01-15T05:24:05;10.70;99.90
27128;DHT22;14660;49.008;8.390;2023-01-15T05:26:36;10.80;99.90
27128;DHT22;14660;49.008;8.390;2023-01-15T05:29:03;10.80;99.90
27128;DHT22;14660;49.008;8.390;2023-01-15T05:31:30;10.70;99.90
27128;DHT22;14660;49.008;8.390;2023-01-15T05:33:59;10.60;99.90
27128;DHT22;14660;49.008;8.390;2023-01-15T05:36:28;10.80;99.90
27128;DHT22;14660;49.008;8.390;2023-01-15T05:38:57;10.80;99.90
27128;DHT22;14660;49.008;8.390;2023-01-15T05:41:28;10.70;99.90
27128;DHT22;14660;49.008;8.390;2023-01-15T05:46:43;10.60;99.90
27128;DHT22;14660;49.008;8.390;2023-01-15T05:49:16;10.50;99.90
27128;DHT22;14660;49.008;8.390;2023-01-15T05:51:44;10.50;99.90
27128;DHT22;14660;49.008;8.390;2023-01-15T05:54:16;10.30;99.90
27128;DHT22;14660;49.008;8.390;2023-01-15T05:56:44;10.10;99.90
27128;DHT22;14660;49.008;8.390;2023-01-15T05:59:17;10.10;99.90
27128;DHT22;14660;49.008;8.390;2023-01-15T06:01:44;10.20;99.90
27128;DHT22;14660;49.008;8.390;2023-01-15T06:04:12;10.10;99.90
27128;DHT22;14660;49.008;8.390;2023-01-15T06:06:41;10.00;99.90
27128;DHT22;14660;49.008;8.390;2023-01-15T06:09:08;9.90;99.90
27128;DHT22;14660;49.008;8.390;2023-01-15T06:11:34;10.10;99.90
27128;DHT22;14660;49.008;8.390;2023-01-15T06:14:01;10.00;99.90
27128;DHT22;14660;49.008;8.390;2023-01-15T06:16:28;10.00;99.90
27128;DHT22;14660;49.008;8.390;2023-01-15T06:19:00;9.80;99.90
27128;DHT22;14660;49.008;8.390;2023-01-15T06:21:27;9.80;99.90
27128;DHT22;14660;49.008;8.390;2023-01-15T06:23:53;9.80;99.90
27128;DHT22;14660;49.008;8.390;2023-01-15T06:26:20;9.70;99.90
27128;DHT22;14660;49.008;8.390;2023-01-15T06:28:46;9.70;99.90
27128;DHT22;14660;49.008;8.390;2023-01-15T06:31:16;9.70;99.90
27128;DHT22;14660;49.008;8.390;2023-01-15T06:33:43;9.80;99.90
27128;DHT22;14660;49.008;8.390;2023-01-15T06:36:13;9.70;99.90
27128;DHT22;14660;49.008;8.390;2023-01-15T06:38:41;9.60;99.90
27128;DHT22;14660;49.008;8.390;2023-01-15T06:41:18;9.70;99.90
27128;DHT22;14660;49.008;8.390;2023-01-15T06:44:02;9.70;99.90
27128;DHT22;14660;49.008;8.390;2023-01-15T06:46:49;9.80;99.90
27128;DHT22;14660;49.008;8.390;2023-01-15T06:49:35;9.70;99.90
27128;DHT22;14660;49.008;8.390;2023-01-15T06:52:03;9.70;99.90
27128;DHT22;14660;49.008;8.390;2023-01-15T06:54:30;9.60;99.90
27128;DHT22;14660;49.008;8.390;2023-01-15T06:56:57;9.60;99.90
27128;DHT22;14660;49.008;8.390;2023-01-15T06:59:24;9.60;99.90
27128;DHT22;14660;49.008;8.390;2023-01-15T07:01:50;9.60;99.90
27128;DHT22;14660;49.008;8.390;2023-01-15T07:04:17;9.60;99.90
27128;DHT22;14660;49.008;8.390;2023-01-15T07:06:44;9.50;99.90
27128;DHT22;14660;49.008;8.390;2023-01-15T07:09:12;9.50;99.90
27128;DHT22;14660;49.008;8.390;2023-01-15T07:11:39;9.50;99.90
27128;DHT22;14660;49.008;8.390;2023-01-15T07:14:16;9.60;99.90
27128;DHT22;14660;49.008;8.390;2023-01-15T07:16:43;9.50;99.90
27128;DHT22;14660;49.008;8.390;2023-01-15T07:19:11;9.60;99.90
27128;DHT22;14660;49.008;8.390;2023-01-15T07:21:38;9.60;99.90
27128;DHT22;14660;49.008;8.390;2023-01-15T07:24:06;9.50;99.90
27128;DHT22;14660;49.008;8.390;2023-01-15T07:26:33;9.40;99.90
27128;DHT22;14660;49.008;8.390;2023-01-15T07:29:02;9.40;99.90
27128;DHT22;14660;49.008;8.390;2023-01-15T07:31:29;9.40;99.90
27128;DHT22;14660;49.008;8.390;2023-01-15T07:33:56;9.40;99.90
27128;DHT22;14660;49.008;8.390;2023-01-15T07:36:24;9.40;99.90
27128;DHT22;14660;49.008;8.390;2023-01-15T07:38:51;9.50;99.90
27128;DHT22;14660;49.008;8.390;2023-01-15T07:41:18;9.40;99.90
27128;DHT22;14660;49.008;8.390;2023-01-15T07:44:03;9.40;99.90
27128;DHT22;14660;49.008;8.390;2023-01-15T07:46:48;9.40;99.90
27128;DHT22;14660;49.008;8.390;2023-01-15T07:49:33;9.30;99.90
27128;DHT22;14660;49.008;8.390;2023-01-15T07:52:16;9.30;99.90
27128;DHT22;14660;49.008;8.390;2023-01-15T07:54:42;9.30;99.90
27128;DHT22;14660;49.008;8.390;2023-01-15T07:57:10;9.30;99.90
27128;DHT22;14660;49.008;8.390;2023-01-15T07:59:37;9.30;99.90
27128;DHT22;14660;49.008;8.390;2023-01-15T08:02:05;9.20;99.90
27128;DHT22;14660;49.008;8.390;2023-01-15T08:04:32;9.20;99.90
27128;DHT22;14660;49.008;8.390;2023-01-15T08:07:01;9.30;99.90
27128;DHT22;14660;49.008;8.390;2023-01-15T08:09:28;9.10;99.90
27128;DHT22;14660;49.008;8.390;2023-01-15T08:11:55;9.10;99.90
27128;DHT22;14660;49.008;8.390;2023-01-15T08:14:43;9.20;99.90
27128;DHT22;14660;49.008;8.390;2023-01-15T08:17:28;9.10;99.90
27128;DHT22;14660;49.008;8.390;2023-01-15T08:19:55;9.10;99.90
27128;DHT22;14660;49.008;8.390;2023-01-15T08:22:22;9.10;99.90
27128;DHT22;14660;49.008;8.390;2023-01-15T08:24:49;9.20;99.90
27128;DHT22;14660;49.008;8.390;2023-01-15T08:27:16;9.10;99.90
27128;DHT22;14660;49.008;8.390;2023-01-15T08:29:43;9.20;99.90
27128;DHT22;14660;49.008;8.390;2023-01-15T08:32:09;9.20;99.90
27128;DHT22;14660;49.008;8.390;2023-01-15T08:34:39;9.40;99.90
27128;DHT22;14660;49.008;8.390;2023-01-15T08:37:06;9.30;99.90
27128;DHT22;14660;49.008;8.390;2023-01-15T08:39:36;9.20;99.90
27128;DHT22;14660;49.008;8.390;2023-01-15T08:42:03;9.20;99.90
27128;DHT22;14660;49.008;8.390;2023-01-15T08:44:30;9.20;99.90
27128;DHT22;14660;49.008;8.390;2023-01-15T08:46:56;9.10;99.90
27128;DHT22;14660;49.008;8.390;2023-01-15T08:49:23;9.10;99.90
27128;DHT22;14660;49.008;8.390;2023-01-15T08:51:49;9.00;99.90
27128;DHT22;14660;49.008;8.390;2023-01-15T08:54:19;9.00;99.90
27128;DHT22;14660;49.008;8.390;2023-01-15T08:56:47;9.00;99.90
27128;DHT22;14660;49.008;8.390;2023-01-15T08:59:14;9.00;99.90
27128;DHT22;14660;49.008;8.390;2023-01-15T09:01:46;9.00;99.90
27128;DHT22;14660;49.008;8.390;2023-01-15T09:04:14;9.00;99.90
27128;DHT22;14660;49.008;8.390;2023-01-15T09:06:40;8.90;99.90
27128;DHT22;14660;49.008;8.390;2023-01-15T09:09:06;8.90;99.90
27128;DHT22;14660;49.008;8.390;2023-01-15T09:11:32;8.80;99.90
27128;DHT22;14660;49.008;8.390;2023-01-15T09:13:58;8.80;99.90
27128;DHT22;14660;49.008;8.390;2023-01-15T09:16:25;8.80;99.90
27128;DHT22;14660;49.008;8.390;2023-01-15T09:18:53;8.80;99.90
27128;DHT22;14660;49.008;8.390;2023-01-15T09:21:20;8.90;99.90
27128;DHT22;14660;49.008;8.390;2023-01-15T09:23:46;8.80;99.90
27128;DHT22;14660;49.008;8.390;2023-01-15T09:29:19;8.80;99.90
27128;DHT22;14660;49.008;8.390;2023-01-15T09:31:46;8.80;99.90
27128;DHT22;14660;49.008;8.390;2023-01-15T09:34:12;8.70;99.90
27128;DHT22;14660;49.008;8.390;2023-01-15T09:36:39;8.60;99.90
27128;DHT22;14660;49.008;8.390;2023-01-15T09:39:06;8.70;99.90
27128;DHT22;14660;49.008;8.390;2023-01-15T09:48:10;8.80;99.90
27128;DHT22;14660;49.008;8.390;2023-01-15T09:54:25;8.60;99.90
27128;DHT22;14660;49.008;8.390;2023-01-15T09:56:55;8.70;99.90
27128;DHT22;14660;49.008;8.390;2023-01-15T09:59:41;8.60;99.90
27128;DHT22;14660;49.008;8.390;2023-01-15T10:14:24;8.50;99.90
27128;DHT22;14660;49.008;8.390;2023-01-15T10:16:58;8.50;99.90
27128;DHT22;14660;49.008;8.390;2023-01-15T10:19:24;8.50;99.90
27128;DHT22;14660;49.008;8.390;2023-01-15T10:22:04;8.50;99.90
27128;DHT22;14660;49.008;8.390;2023-01-15T10:24:45;8.50;99.90
27128;DHT22;14660;49.008;8.390;2023-01-15T10:27:20;8.40;99.90
27128;DHT22;14660;49.008;8.390;2023-01-15T10:30:10;8.40;99.90
27128;DHT22;14660;49.008;8.390;2023-01-15T10:33:00;8.50;99.90
27128;DHT22;14660;49.008;8.390;2023-01-15T10:42:10;8.30;99.90
27128;DHT22;14660;49.008;8.390;2023-01-15T10:47:45;8.30;99.90
27128;DHT22;14660;49.008;8.390;2023-01-15T10:50:19;8.20;99.90
27128;DHT22;14660;49.008;8.390;2023-01-15T10:52:50;8.30;99.90
27128;DHT22;14660;49.008;8.390;2023-01-15T11:00:57;8.20;99.90
27128;DHT22;14660;49.008;8.390;2023-01-15T11:03:44;8.10;99.90
27128;DHT22;14660;49.008;8.390;2023-01-15T11:06:19;8.20;99.90
27128;DHT22;14660;49.008;8.390;2023-01-15T11:11:51;8.00;99.90
27128;DHT22;14660;49.008;8.390;2023-01-15T11:14:42;8.00;99.90
27128;DHT22;14660;49.008;8.390;2023-01-15T11:17:51;8.00;99.90
27128;DHT22;14660;49.008;8.390;2023-01-15T11:20:52;8.00;99.90
27128;DHT22;14660;49.008;8.390;2023-01-15T11:23:20;7.90;99.90
27128;DHT22;14660;49.008;8.390;2023-01-15T11:25:51;8.00;99.90
27128;DHT22;14660;49.008;8.390;2023-01-15T11:28:37;7.80;99.90
27128;DHT22;14660;49.008;8.390;2023-01-15T11:31:10;7.90;99.90
27128;DHT22;14660;49.008;8.390;2023-01-15T11:33:59;7.90;99.90
27128;DHT22;14660;49.008;8.390;2023-01-15T11:36:28;7.80;99.90
27128;DHT22;14660;49.008;8.390;2023-01-15T11:38:55;7.70;99.90
27128;DHT22;14660;49.008;8.390;2023-01-15T11:41:40;7.80;99.90
27128;DHT22;14660;49.008;8.390;2023-01-15T11:44:26;7.80;99.90
27128;DHT22;14660;49.008;8.390;2023-01-15T11:47:15;7.80;99.90
27128;DHT22;14660;49.008;8.390;2023-01-15T11:50:01;7.80;99.90
27128;DHT22;14660;49.008;8.390;2023-01-15T11:52:51;7.90;99.90
27128;DHT22;14660;49.008;8.390;2023-01-15T11:55:21;8.00;99.90
27128;DHT22;14660;49.008;8.390;2023-01-15T11:57:55;8.00;99.90
27128;DHT22;14660;49.008;8.390;2023-01-15T12:00:35;7.90;99.90
27128;DHT22;14660;49.008;8.390;2023-01-15T12:03:27;8.00;99.90
27128;DHT22;14660;49.008;8.390;2023-01-15T12:06:00;7.90;99.90
27128;DHT22;14660;49.008;8.390;2023-01-15T12:11:50;8.10;99.90
27128;DHT22;14660;49.008;8.390;2023-01-15T12:23:58;8.20;99.90
27128;DHT22;14660;49.008;8.390;2023-01-15T12:30:16;8.40;99.90
27128;DHT22;14660;49.008;8.390;2023-01-15T12:35:37;8.30;99.90
27128;DHT22;14660;49.008;8.390;2023-01-15T12:38:19;8.30;99.90
27128;DHT22;14660;49.008;8.390;2023-01-15T12:40:55;8.20;99.90
27128;DHT22;14660;49.008;8.390;2023-01-15T12:43:27;8.20;99.90
27128;DHT22;14660;49.008;8.390;2023-01-15T12:46:23;8.20;99.90
27128;DHT22;14660;49.008;8.390;2023-01-15T12:49:15;8.30;99.90
27128;DHT22;14660;49.008;8.390;2023-01-15T12:52:07;8.30;99.90
27128;DHT22;14660;49.008;8.390;2023-01-15T12:54:40;8.20;99.90
27128;DHT22;14660;49.008;8.390;2023-01-15T12:57:37;8.20;99.90
27128;DHT22;14660;49.008;8.390;2023-01-15T13:03:44;8.10;99.90
27128;DHT22;14660;49.008;8.390;2023-01-15T13:06:14;8.20;99.90
27128;DHT22;14660;49.008;8.390;2023-01-15T13:11:43;8.20;99.90
27128;DHT22;14660;49.008;8.390;2023-01-15T13:14:17;8.20;99.90
27128;DHT22;14660;49.008;8.390;2023-01-15T13:19:51;8.20;99.90
27128;DHT22;14660;49.008;8.390;2023-01-15T13:22:26;8.20;99.90
27128;DHT22;14660;49.008;8.390;2023-01-15T13:33:45;8.30;99.90
27128;DHT22;14660;49.008;8.390;2023-01-15T13:36:50;8.40;99.90
27128;DHT22;14660;49.008;8.390;2023-01-15T13:39:27;8.30;99.90
27128;DHT22;14660;49.008;8.390;2023-01-15T13:42:00;8.30;99.90
27128;DHT22;14660;49.008;8.390;2023-01-15T13:44:51;8.30;99.90
27128;DHT22;14660;49.008;8.390;2023-01-15T13:47:32;8.40;99.90
27128;DHT22;14660;49.008;8.390;2023-01-15T13:50:03;8.50;99.90
27128;DHT22;14660;49.008;8.390;2023-01-15T13:52:49;8.50;99.90
27128;DHT22;14660;49.008;8.390;2023-01-15T13:55:41;8.50;99.90
27128;DHT22;14660;49.008;8.390;2023-01-15T14:09:29;8.70;99.90
27128;DHT22;14660;49.008;8.390;2023-01-15T14:15:07;8.70;99.90
27128;DHT22;14660;49.008;8.390;2023-01-15T14:36:16;8.40;99.90
27128;DHT22;14660;49.008;8.390;2023-01-15T14:38:53;8.30;99.90
27128;DHT22;14660;49.008;8.390;2023-01-15T14:41:30;8.50;99.90
27128;DHT22;14660;49.008;8.390;2023-01-15T14:44:00;8.50;99.90
27128;DHT22;14660;49.008;8.390;2023-01-15T14:46:45;8.60;99.90
27128;DHT22;14660;49.008;8.390;2023-01-15T14:49:30;8.50;99.90
27128;DHT22;14660;49.008;8.390;2023-01-15T14:51:57;8.50;99.90
27128;DHT22;14660;49.008;8.390;2023-01-15T14:54:24;8.50;99.90
27128;DHT22;14660;49.008;8.390;2023-01-15T14:57:09;8.60;99.90
27128;DHT22;14660;49.008;8.390;2023-01-15T14:59:59;8.60;99.90
27128;DHT22;14660;49.008;8.390;2023-01-15T15:02:36;8.60;99.90
27128;DHT22;14660;49.008;8.390;2023-01-15T15:05:05;8.50;99.90
27128;DHT22;14660;49.008;8.390;2023-01-15T15:07:43;8.50;99.90
27128;DHT22;14660;49.008;8.390;2023-01-15T15:10:30;8.50;99.90
27128;DHT22;14660;49.008;8.390;2023-01-15T15:13:31;8.50;99.90
27128;DHT22;14660;49.008;8.390;2023-01-15T15:16:20;8.40;99.90
27128;DHT22;14660;49.008;8.390;2023-01-15T15:19:06;8.50;99.90
27128;DHT22;14660;49.008;8.390;2023-01-15T15:21:42;8.40;99.90
27128;DHT22;14660;49.008;8.390;2023-01-15T15:24:29;8.50;99.90
27128;DHT22;14660;49.008;8.390;2023-01-15T15:27:07;8.40;99.90
27128;DHT22;14660;49.008;8.390;2023-01-15T15:29:37;8.50;99.90
27128;DHT22;14660;49.008;8.390;2023-01-15T15:32:04;8.60;99.90
27128;DHT22;14660;49.008;8.390;2023-01-15T15:34:34;8.60;99.90
27128;DHT22;14660;49.008;8.390;2023-01-15T15:37:16;8.50;99.90
27128;DHT22;14660;49.008;8.390;2023-01-15T15:46:04;8.50;99.90
27128;DHT22;14660;49.008;8.390;2023-01-15T15:48:56;8.50;99.90
27128;DHT22;14660;49.008;8.390;2023-01-15T15:51:38;8.50;99.90
27128;DHT22;14660;49.008;8.390;2023-01-15T15:54:24;8.40;99.90
27128;DHT22;14660;49.008;8.390;2023-01-15T15:57:16;8.30;99.90
27128;DHT22;14660;49.008;8.390;2023-01-15T15:59:48;8.40;99.90
27128;DHT22;14660;49.008;8.390;2023-01-15T16:02:38;8.50;99.90
27128;DHT22;14660;49.008;8.390;2023-01-15T16:05:26;8.40;99.90
27128;DHT22;14660;49.008;8.390;2023-01-15T16:08:17;8.40;99.90
27128;DHT22;14660;49.008;8.390;2023-01-15T16:10:47;8.30;99.90
27128;DHT22;14660;49.008;8.390;2023-01-15T16:16:12;8.40;99.90
27128;DHT22;14660;49.008;8.390;2023-01-15T16:18:53;8.30;99.90
27128;DHT22;14660;49.008;8.390;2023-01-15T16:21:48;8.30;99.90
27128;DHT22;14660;49.008;8.390;2023-01-15T16:24:26;8.30;99.90
27128;DHT22;14660;49.008;8.390;2023-01-15T16:27:04;8.30;99.90
27128;DHT22;14660;49.008;8.390;2023-01-15T16:29:34;8.30;99.90
27128;DHT22;14660;49.008;8.390;2023-01-15T16:32:09;8.30;99.90
27128;DHT22;14660;49.008;8.390;2023-01-15T16:34:35;8.40;99.90
27128;DHT22;14660;49.008;8.390;2023-01-15T16:37:01;8.30;99.90
27128;DHT22;14660;49.008;8.390;2023-01-15T16:39:39;8.10;99.90
27128;DHT22;14660;49.008;8.390;2023-01-15T16:42:38;8.10;99.90
27128;DHT22;14660;49.008;8.390;2023-01-15T16:45:17;8.20;99.90
27128;DHT22;14660;49.008;8.390;2023-01-15T16:48:02;8.10;99.90
27128;DHT22;14660;49.008;8.390;2023-01-15T16:50:37;8.10;99.90
27128;DHT22;14660;49.008;8.390;2023-01-15T16:53:05;8.10;99.90
27128;DHT22;14660;49.008;8.390;2023-01-15T16:55:35;8.10;99.90
27128;DHT22;14660;49.008;8.390;2023-01-15T17:00:49;8.20;99.90
27128;DHT22;14660;49.008;8.390;2023-01-15T17:05:48;8.10;99.90
27128;DHT22;14660;49.008;8.390;2023-01-15T17:08:18;8.00;99.90
27128;DHT22;14660;49.008;8.390;2023-01-15T17:10:58;8.10;99.90
27128;DHT22;14660;49.008;8.390;2023-01-15T17:13:34;8.20;99.90
27128;DHT22;14660;49.008;8.390;2023-01-15T17:18:49;8.20;99.90
27128;DHT22;14660;49.008;8.390;2023-01-15T17:21:20;8.20;99.90
27128;DHT22;14660;49.008;8.390;2023-01-15T17:23:49;8.20;99.90
27128;DHT22;14660;49.008;8.390;2023-01-15T17:26:18;8.20;99.90
27128;DHT22;14660;49.008;8.390;2023-01-15T17:28:48;8.20;99.90
27128;DHT22;14660;49.008;8.390;2023-01-15T17:31:33;8.20;99.90
27128;DHT22;14660;49.008;8.390;2023-01-15T17:34:01;8.20;99.90
27128;DHT22;14660;49.008;8.390;2023-01-15T17:36:29;8.00;99.90
27128;DHT22;14660;49.008;8.390;2023-01-15T17:38:58;7.90;99.90
27128;DHT22;14660;49.008;8.390;2023-01-15T17:41:25;8.00;99.90
27128;DHT22;14660;49.008;8.390;2023-01-15T17:43:52;8.10;99.90
27128;DHT22;14660;49.008;8.390;2023-01-15T17:46:19;8.10;99.90
27128;DHT22;14660;49.008;8.390;2023-01-15T17:48:45;8.00;99.90
27128;DHT22;14660;49.008;8.390;2023-01-15T17:51:14;8.00;99.90
27128;DHT22;14660;49.008;8.390;2023-01-15T17:53:41;8.00;99.90
27128;DHT22;14660;49.008;8.390;2023-01-15T17:56:07;7.90;99.90
27128;DHT22;14660;49.008;8.390;2023-01-15T17:58:55;8.00;99.90
27128;DHT22;14660;49.008;8.390;2023-01-15T18:01:43;7.90;99.90
27128;DHT22;14660;49.008;8.390;2023-01-15T18:07:19;7.90;99.90
27128;DHT22;14660;49.008;8.390;2023-01-15T18:09:52;7.90;99.90
27128;DHT22;14660;49.008;8.390;2023-01-15T18:12:22;8.00;99.90
27128;DHT22;14660;49.008;8.390;2023-01-15T18:14:50;8.00;99.90
27128;DHT22;14660;49.008;8.390;2023-01-15T18:17:16;7.80;99.90
27128;DHT22;14660;49.008;8.390;2023-01-15T18:19:42;7.90;99.90
27128;DHT22;14660;49.008;8.390;2023-01-15T18:22:12;7.80;99.90
27128;DHT22;14660;49.008;8.390;2023-01-15T18:24:39;7.80;99.90
27128;DHT22;14660;49.008;8.390;2023-01-15T18:27:06;7.80;99.90
27128;DHT22;14660;49.008;8.390;2023-01-15T18:29:33;7.80;99.90
27128;DHT22;14660;49.008;8.390;2023-01-15T18:32:06;7.80;99.90
27128;DHT22;14660;49.008;8.390;2023-01-15T18:34:35;7.80;99.90
27128;DHT22;14660;49.008;8.390;2023-01-15T18:37:04;7.80;99.90
27128;DHT22;14660;49.008;8.390;2023-01-15T18:39:30;7.80;99.90
27128;DHT22;14660;49.008;8.390;2023-01-15T18:41:58;7.80;99.90
27128;DHT22;14660;49.008;8.390;2023-01-15T18:44:26;7.80;99.90
27128;DHT22;14660;49.008;8.390;2023-01-15T18:47:13;7.80;99.90
27128;DHT22;14660;49.008;8.390;2023-01-15T18:49:44;7.80;99.90
27128;DHT22;14660;49.008;8.390;2023-01-15T18:52:12;7.80;99.90
27128;DHT22;14660;49.008;8.390;2023-01-15T18:54:58;7.70;99.90
27128;DHT22;14660;49.008;8.390;2023-01-15T18:57:25;7.80;99.90
27128;DHT22;14660;49.008;8.390;2023-01-15T18:59:52;7.70;99.90
27128;DHT22;14660;49.008;8.390;2023-01-15T19:02:20;7.70;99.90
27128;DHT22;14660;49.008;8.390;2023-01-15T19:04:47;7.70;99.90
27128;DHT22;14660;49.008;8.390;2023-01-15T19:07:19;7.60;99.90
27128;DHT22;14660;49.008;8.390;2023-01-15T19:09:47;7.60;99.90
27128;DHT22;14660;49.008;8.390;2023-01-15T19:12:14;7.70;99.90